sensor_id;sensor_type;location;lat;lon;timestamp;P1;durP1;ratioP1;P2;durP2;ratioP2
39782;SDS011;25462;51.164;17.100;2023-12-20T07:44:29;2.40;;;1.30;;
39782;SDS011;25462;51.164;17.100;2023-12-20T07:50:10;3.10;;;1.40;;
39782;SDS011;25462;51.164;17.100;2023-12-20T08:02:17;3.10;;;1.10;;
39782;SDS011;25462;51.164;17.100;2023-12-20T08:21:21;3.60;;;1.40;;
39782;SDS011;25462;51.164;17.100;2023-12-20T08:33:53;3.10;;;1.30;;
39782;SDS011;25462;51.164;17.100;2023-12-20T11:03:32;2.30;;;1.10;;
39782;SDS011;25462;51.164;17.100;2023-12-20T11:14:56;5.30;;;1.70;;
39782;SDS011;25462;51.164;17.100;2023-12-20T11:20:24;7.30;;;1.80;;
39782;SDS011;25462;51.164;17.100;2023-12-20T11:26:10;5.80;;;1.60;;
39782;SDS011;25462;51.164;17.100;2023-12-20T13:15:16;5.50;;;1.90;;
39782;SDS011;25462;51.164;17.100;2023-12-20T13:21:06;5.50;;;1.30;;
39782;SDS011;25462;51.164;17.100;2023-12-20T13:26:14;6.00;;;1.40;;
39782;SDS011;25462;51.164;17.100;2023-12-20T13:31:51;3.20;;;1.20;;
39782;SDS011;25462;51.164;17.100;2023-12-20T13:37:09;6.50;;;1.40;;
39782;SDS011;25462;51.164;17.100;2023-12-20T13:48:05;7.30;;;2.50;;
39782;SDS011;25462;51.164;17.100;2023-12-20T13:54:16;5.60;;;1.70;;
39782;SDS011;25462;51.164;17.100;2023-12-20T14:57:20;6.70;;;1.40;;
39782;SDS011;25462;51.164;17.100;2023-12-20T15:02:45;5.30;;;1.70;;
39782;SDS011;25462;51.164;17.100;2023-12-20T15:08:06;4.90;;;1.50;;
39782;SDS011;25462;51.164;17.100;2023-12-20T15:13:15;4.60;;;1.40;;
39782;SDS011;25462;51.164;17.100;2023-12-20T15:24:11;4.70;;;1.70;;
39782;SDS011;25462;51.164;17.100;2023-12-20T15:35:20;6.30;;;1.60;;
39782;SDS011;25462;51.164;17.100;2023-12-20T15:40:36;5.80;;;1.90;;
39782;SDS011;25462;51.164;17.100;2023-12-20T15:45:46;6.60;;;1.80;;
39782;SDS011;25462;51.164;17.100;2023-12-20T15:51:13;6.60;;;1.80;;
39782;SDS011;25462;51.164;17.100;2023-12-20T16:48:15;6.60;;;2.20;;
39782;SDS011;25462;51.164;17.100;2023-12-20T16:53:56;8.30;;;2.40;;
39782;SDS011;25462;51.164;17.100;2023-12-20T17:06:20;6.70;;;1.90;;
39782;SDS011;25462;51.164;17.100;2023-12-20T17:11:29;7.70;;;2.60;;
39782;SDS011;25462;51.164;17.100;2023-12-20T17:16:52;5.90;;;2.30;;
39782;SDS011;25462;51.164;17.100;2023-12-20T17:21:54;7.30;;;2.30;;
39782;SDS011;25462;51.164;17.100;2023-12-20T17:26:56;6.00;;;1.80;;
39782;SDS011;25462;51.164;17.100;2023-12-20T17:32:32;4.30;;;1.80;;
39782;SDS011;25462;51.164;17.100;2023-12-20T17:37:58;5.20;;;2.00;;
39782;SDS011;25462;51.164;17.100;2023-12-20T17:43:20;3.70;;;1.70;;
39782;SDS011;25462;51.164;17.100;2023-12-20T17:48:40;4.10;;;1.30;;
39782;SDS011;25462;51.164;17.100;2023-12-20T17:53:52;4.60;;;1.70;;
39782;SDS011;25462;51.164;17.100;2023-12-20T17:59:46;3.90;;;1.40;;
39782;SDS011;25462;51.164;17.100;2023-12-20T18:05:11;4.70;;;1.40;;
39782;SDS011;25462;51.164;17.100;2023-12-20T18:10:27;4.50;;;1.30;;
39782;SDS011;25462;51.164;17.100;2023-12-20T18:15:40;3.70;;;1.50;;
39782;SDS011;25462;51.164;17.100;2023-12-20T18:32:56;3.00;;;1.10;;
39782;SDS011;25462;51.164;17.100;2023-12-20T18:38:14;3.40;;;1.40;;
39782;SDS011;25462;51.164;17.100;2023-12-20T18:43:23;3.50;;;1.30;;
39782;SDS011;25462;51.164;17.100;2023-12-20T18:49:01;4.40;;;1.20;;
39782;SDS011;25462;51.164;17.100;2023-12-20T18:54:20;6.20;;;1.40;;
39782;SDS011;25462;51.164;17.100;2023-12-20T18:59:52;3.70;;;1.60;;
39782;SDS011;25462;51.164;17.100;2023-12-20T19:12:08;4.50;;;1.40;;
39782;SDS011;25462;51.164;17.100;2023-12-20T19:22:41;4.60;;;1.10;;
39782;SDS011;25462;51.164;17.100;2023-12-20T19:28:04;5.50;;;1.20;;
39782;SDS011;25462;51.164;17.100;2023-12-20T19:33:12;4.80;;;1.60;;
39782;SDS011;25462;51.164;17.100;2023-12-20T19:38:29;4.00;;;1.20;;
39782;SDS011;25462;51.164;17.100;2023-12-20T19:50:24;2.90;;;1.00;;
39782;SDS011;25462;51.164;17.100;2023-12-20T19:55:49;3.50;;;1.10;;
39782;SDS011;25462;51.164;17.100;2023-12-20T20:01:03;4.00;;;1.40;;
39782;SDS011;25462;51.164;17.100;2023-12-20T20:06:15;4.50;;;1.50;;
39782;SDS011;25462;51.164;17.100;2023-12-20T20:11:21;4.00;;;1.20;;
39782;SDS011;25462;51.164;17.100;2023-12-20T20:16:44;5.40;;;2.20;;
39782;SDS011;25462;51.164;17.100;2023-12-20T20:28:35;6.70;;;1.70;;
39782;SDS011;25462;51.164;17.100;2023-12-20T20:33:44;9.60;;;2.60;;
39782;SDS011;25462;51.164;17.100;2023-12-20T20:38:50;2.90;;;1.10;;
39782;SDS011;25462;51.164;17.100;2023-12-20T20:43:58;5.10;;;1.10;;
39782;SDS011;25462;51.164;17.100;2023-12-20T20:49:44;3.00;;;1.20;;
39782;SDS011;25462;51.164;17.100;2023-12-20T20:54:50;3.90;;;1.20;;
39782;SDS011;25462;51.164;17.100;2023-12-20T20:59:56;5.20;;;1.50;;
39782;SDS011;25462;51.164;17.100;2023-12-20T21:05:07;4.30;;;1.30;;
39782;SDS011;25462;51.164;17.100;2023-12-20T21:15:56;5.30;;;1.90;;
39782;SDS011;25462;51.164;17.100;2023-12-20T21:21:04;3.70;;;1.50;;
39782;SDS011;25462;51.164;17.100;2023-12-20T21:31:36;4.60;;;1.90;;
39782;SDS011;25462;51.164;17.100;2023-12-20T21:42:40;6.20;;;2.10;;
39782;SDS011;25462;51.164;17.100;2023-12-20T21:47:56;5.30;;;2.50;;
39782;SDS011;25462;51.164;17.100;2023-12-20T21:53:03;6.30;;;2.00;;
39782;SDS011;25462;51.164;17.100;2023-12-20T21:58:14;6.60;;;2.40;;
39782;SDS011;25462;51.164;17.100;2023-12-20T22:03:20;9.20;;;2.80;;
39782;SDS011;25462;51.164;17.100;2023-12-20T22:08:26;6.90;;;2.90;;
39782;SDS011;25462;51.164;17.100;2023-12-20T22:13:31;8.20;;;2.70;;
39782;SDS011;25462;51.164;17.100;2023-12-20T22:18:47;7.20;;;2.00;;
39782;SDS011;25462;51.164;17.100;2023-12-20T22:23:55;5.60;;;2.00;;
39782;SDS011;25462;51.164;17.100;2023-12-20T22:29:00;3.70;;;1.50;;
39782;SDS011;25462;51.164;17.100;2023-12-20T22:34:07;4.60;;;1.90;;
39782;SDS011;25462;51.164;17.100;2023-12-20T22:39:22;5.30;;;1.70;;
39782;SDS011;25462;51.164;17.100;2023-12-20T22:44:41;6.50;;;2.40;;
39782;SDS011;25462;51.164;17.100;2023-12-20T22:49:45;6.40;;;2.10;;
39782;SDS011;25462;51.164;17.100;2023-12-20T23:01:04;3.80;;;1.40;;
39782;SDS011;25462;51.164;17.100;2023-12-20T23:07:11;2.80;;;0.90;;
39782;SDS011;25462;51.164;17.100;2023-12-20T23:12:29;4.40;;;1.00;;
39782;SDS011;25462;51.164;17.100;2023-12-20T23:17:37;3.40;;;0.80;;
39782;SDS011;25462;51.164;17.100;2023-12-20T23:28:51;2.10;;;0.80;;
39782;SDS011;25462;51.164;17.100;2023-12-20T23:34:51;3.30;;;0.90;;
39782;SDS011;25462;51.164;17.100;2023-12-20T23:40:26;2.40;;;0.90;;
39782;SDS011;25462;51.164;17.100;2023-12-20T23:45:50;2.00;;;0.60;;
39782;SDS011;25462;51.164;17.100;2023-12-20T23:51:35;3.90;;;0.80;;
39782;SDS011;25462;51.164;17.100;2023-12-20T23:57:36;1.10;;;0.50;;
